Time;durP1;ratioP1;P1;durP2;ratioP2;P2;SDS_P1;SDS_P2;PMS_P1;PMS_P2;Temp;Humidity;BMP_temperature;BMP_pressure;BME280_temperature;BME280_humidity;BME280_pressure;Samples;Min_cycle;Max_cycle;Signal;HPM_P1;HPM_P2
2022/05/01 00:00:25;;;;;;;38.13;29.75;;;;;;;5.83;100.00;99486.97;2125102;27;20201;-76
2022/05/01 00:01:28;;;;;;;40.13;29.25;;;;;;;5.85;100.00;99487.53;2124966;27;20195;-75
2022/05/01 00:02:28;;;;;;;36.35;29.35;;;;;;;5.80;100.00;99484.81;2125006;27;20188;-75
2022/05/01 00:03:34;;;;;;;42.13;30.13;;;;;;;5.76;100.00;99489.03;2115759;28;20192;-75
2022/05/01 00:04:34;;;;;;;39.63;31.23;;;;;;;5.72;100.00;99494.03;2107950;28;20194;-76
2022/05/01 00:05:36;;;;;;;36.93;29.80;;;;;;;5.70;100.00;99487.41;2116011;28;20220;-75
2022/05/01 00:06:38;;;;;;;38.30;31.70;;;;;;;5.64;100.00;99490.00;2123542;27;20224;-76
2022/05/01 00:07:40;;;;;;;41.78;31.00;;;;;;;5.62;100.00;99484.16;2124363;27;20180;-75
2022/05/01 00:08:41;;;;;;;41.40;29.90;;;;;;;5.61;100.00;99495.81;2125004;27;20245;-75
2022/05/01 00:09:43;;;;;;;47.25;32.80;;;;;;;5.59;100.00;99487.31;2124950;27;20185;-76
2022/05/01 00:10:43;;;;;;;42.25;32.45;;;;;;;5.58;100.00;99493.66;2124984;27;20188;-75
2022/05/01 00:11:46;;;;;;;46.37;32.80;;;;;;;5.55;100.00;99494.16;2125039;27;20727;-75
2022/05/01 00:12:49;;;;;;;49.67;32.42;;;;;;;5.55;100.00;99494.16;2114962;28;20581;-75
2022/05/01 00:13:52;;;;;;;48.03;33.50;;;;;;;5.54;100.00;99487.28;2115648;28;20744;-75
2022/05/01 00:14:52;;;;;;;48.65;34.42;;;;;;;5.55;100.00;99494.16;2115846;27;20236;-75
2022/05/01 00:15:56;;;;;;;44.27;33.30;;;;;;;5.53;100.00;99490.19;2124860;27;20196;-76
2022/05/01 00:16:56;;;;;;;49.35;31.70;;;;;;;5.54;100.00;99495.22;2125088;27;20191;-75
2022/05/01 00:17:58;;;;;;;43.03;31.23;;;;;;;5.54;100.00;99497.06;2124868;27;20275;-75
2022/05/01 00:19:01;;;;;;;45.25;33.70;;;;;;;5.52;100.00;99499.16;2124980;27;20188;-75
2022/05/01 00:20:03;;;;;;;44.60;33.72;;;;;;;5.52;100.00;99493.88;2115314;28;20565;-76
2022/05/01 00:21:04;;;;;;;44.95;32.70;;;;;;;5.51;100.00;99493.06;2115363;28;20188;-76
2022/05/01 00:22:06;;;;;;;40.53;30.80;;;;;;;5.55;100.00;99493.34;2124178;27;20226;-76
2022/05/01 00:23:07;;;;;;;47.63;32.30;;;;;;;5.58;100.00;99493.66;2124456;27;20188;-76
2022/05/01 00:24:09;;;;;;;41.07;32.50;;;;;;;5.58;100.00;99485.72;2124789;27;20658;-76
2022/05/01 00:25:09;;;;;;;47.90;32.42;;;;;;;5.57;100.00;99494.72;2115650;28;20193;-76
2022/05/01 00:26:11;;;;;;;42.47;32.60;;;;;;;5.57;100.00;99492.06;2115738;28;20216;-75
2022/05/01 00:27:13;;;;;;;45.40;33.47;;;;;;;5.56;100.00;99490.50;2115436;28;20208;-75
2022/05/01 00:28:15;;;;;;;45.97;33.63;;;;;;;5.55;100.00;99491.50;2107216;28;20190;-76
2022/05/01 00:29:16;;;;;;;48.40;35.60;;;;;;;5.52;100.00;99484.09;2115748;28;20631;-76
2022/05/01 00:30:18;;;;;;;45.67;34.57;;;;;;;5.53;100.00;99490.19;2116370;28;20215;-76
2022/05/01 00:31:21;;;;;;;49.22;35.03;;;;;;;5.51;100.00;99489.63;2116259;28;20189;-76
2022/05/01 00:32:22;;;;;;;48.47;34.60;;;;;;;5.50;100.00;99499.44;2116263;28;20185;-75
2022/05/01 00:37:26;;;;;;;44.83;32.80;;;;;;;5.38;100.00;99493.47;2098404;28;20205;-76
2022/05/01 00:38:27;;;;;;;47.90;32.33;;;;;;;5.36;100.00;99501.66;2115601;28;20197;-76
2022/05/01 00:39:28;;;;;;;44.33;33.83;;;;;;;5.32;100.00;99492.66;2116261;28;20267;-76
2022/05/01 00:40:29;;;;;;;43.53;32.50;;;;;;;5.34;100.00;99492.41;2116417;28;20189;-75
2022/05/01 00:41:32;;;;;;;43.40;31.73;;;;;;;5.34;100.00;99492.41;2116233;28;20268;-76
2022/05/01 00:42:33;;;;;;;44.28;32.03;;;;;;;5.34;100.00;99493.19;2116228;28;20213;-76
2022/05/01 00:43:35;;;;;;;43.53;32.70;;;;;;;5.33;100.00;99491.59;2116213;28;20177;-76
2022/05/01 00:44:36;;;;;;;41.78;32.33;;;;;;;5.35;100.00;99491.34;2116051;28;20205;-76
2022/05/01 00:45:37;;;;;;;44.20;32.27;;;;;;;5.34;100.00;99493.19;2116388;28;20232;-76
2022/05/01 00:46:41;;;;;;;39.72;31.33;;;;;;;5.36;100.00;99493.72;2123977;27;20196;-76
2022/05/01 00:47:45;;;;;;;43.15;31.13;;;;;;;5.38;100.00;99496.91;2115477;28;20221;-75
2022/05/01 00:48:53;;;;;;;40.17;32.13;;;;;;;5.42;100.00;99494.59;2115589;28;20184;-75
2022/05/01 00:49:55;;;;;;;49.47;32.35;;;;;;;5.46;100.00;99494.88;2115524;28;20197;-75
2022/05/01 00:50:56;;;;;;;40.40;32.25;;;;;;;5.50;100.00;99501.28;2106496;28;20290;-75
2022/05/01 00:52:00;;;;;;;49.43;33.17;;;;;;;5.48;100.00;99488.31;2107016;28;20189;-75
2022/05/01 00:53:01;;;;;;;45.72;33.95;;;;;;;5.49;100.00;99492.53;2115442;28;20185;-75
2022/05/01 00:54:07;;;;;;;43.92;31.83;;;;;;;5.50;100.00;99495.97;2115456;28;20189;-77
2022/05/01 00:55:08;;;;;;;48.25;33.58;;;;;;;5.49;100.00;99494.38;2115829;28;20170;-76
2022/05/01 00:56:13;;;;;;;47.80;31.67;;;;;;;5.50;100.00;99490.69;2116120;28;20192;-77
2022/05/01 00:57:14;;;;;;;42.30;31.50;;;;;;;5.49;100.00;99484.59;2115359;28;20201;-78
2022/05/01 00:58:16;;;;;;;42.20;32.70;;;;;;;5.48;100.00;99488.31;2115402;28;20242;-77
2022/05/01 00:59:17;;;;;;;42.15;32.00;;;;;;;5.48;100.00;99490.16;2114975;28;20226;-76
2022/05/01 01:00:19;;;;;;;43.10;32.40;;;;;;;5.43;100.00;99488.25;2115699;28;20177;-75
2022/05/01 01:01:22;;;;;;;43.60;32.40;;;;;;;5.37;100.00;99492.69;2123839;27;20196;-74
2022/05/01 01:02:25;;;;;;;42.13;31.77;;;;;;;5.32;100.00;99482.06;2115323;28;20193;-75
2022/05/01 01:03:28;;;;;;;46.03;33.30;;;;;;;5.30;100.00;99484.16;2115488;28;20181;-75
2022/05/01 01:04:30;;;;;;;44.55;32.17;;;;;;;5.26;100.00;99487.56;2115988;28;20188;-75
2022/05/01 01:05:31;;;;;;;46.83;32.97;;;;;;;5.22;100.00;99495.19;2115373;28;20209;-75
2022/05/01 01:06:35;;;;;;;41.43;31.90;;;;;;;5.18;100.00;99490.66;2115014;28;20304;-75
2022/05/01 01:07:36;;;;;;;39.85;31.77;;;;;;;5.15;100.00;99494.59;2116219;28;20541;-75
2022/05/01 01:08:39;;;;;;;38.60;33.37;;;;;;;5.08;100.00;99491.34;2115934;28;20188;-75
2022/05/01 01:09:42;;;;;;;48.53;34.00;;;;;;;5.04;100.00;99500.84;2115949;28;20279;-75
2022/05/01 01:10:43;;;;;;;46.72;34.15;;;;;;;5.00;100.00;99492.59;2116175;28;20197;-75
2022/05/01 01:11:45;;;;;;;47.40;35.23;;;;;;;4.95;100.00;99489.91;2116010;28;20238;-76
2022/05/01 01:12:56;;;;;;;55.58;38.65;;;;;;;4.99;100.00;99493.63;2115945;28;20192;-75
2022/05/01 01:14:03;;;;;;;58.22;38.47;;;;;;;5.00;100.00;99494.44;2116210;28;20173;-75
2022/05/01 01:15:08;;;;;;;54.40;38.22;;;;;;;4.97;100.00;99489.66;2116041;28;20627;-76
2022/05/01 01:16:12;;;;;;;57.13;39.13;;;;;;;5.01;100.00;99488.91;2115220;28;20228;-75
2022/05/01 01:17:14;;;;;;;50.08;35.50;;;;;;;5.02;100.00;99494.97;2114747;28;20544;-75
2022/05/01 01:18:17;;;;;;;52.80;34.53;;;;;;;5.02;100.00;99489.69;2115201;28;20654;-75
2022/05/01 01:19:18;;;;;;;51.50;36.10;;;;;;;5.02;100.00;99494.97;2115324;28;20193;-75
2022/05/01 01:20:25;;;;;;;55.42;37.03;;;;;;;5.00;100.00;99487.31;2114795;28;20193;-75
2022/05/01 01:21:27;;;;;;;52.45;38.38;;;;;;;4.99;100.00;99493.63;2114905;28;20316;-75
2022/05/01 01:22:29;;;;;;;43.47;34.55;;;;;;;4.97;100.00;99487.81;2115251;28;20641;-75
2022/05/01 01:23:30;;;;;;;50.78;35.30;;;;;;;5.03;100.00;99488.63;2115231;28;20670;-75
2022/05/01 01:24:33;;;;;;;47.63;35.13;;;;;;;5.02;100.00;99487.03;2114778;28;20283;-76
2022/05/01 01:25:34;;;;;;;43.67;33.75;;;;;;;5.05;100.00;99486.56;2115274;28;20623;-75
2022/05/01 01:26:38;;;;;;;47.27;34.57;;;;;;;5.05;100.00;99483.91;2115126;28;20262;-75
2022/05/01 01:27:41;;;;;;;47.38;35.92;;;;;;;5.08;100.00;99492.16;2115207;28;20225;-75
2022/05/01 01:28:45;;;;;;;45.42;33.55;;;;;;;5.08;100.00;99491.34;2115096;28;20197;-76
2022/05/01 01:32:26;;;;;;;45.50;32.63;;;;;;;5.02;100.00;99482.56;2115105;28;20200;-76
2022/05/01 01:33:28;;;;;;;46.17;33.20;;;;;;;4.99;100.00;99480.41;2115104;28;20208;-76
2022/05/01 01:34:32;;;;;;;44.65;33.30;;;;;;;4.98;100.00;99478.81;2123575;27;20580;-76
2022/05/01 01:35:35;;;;;;;53.50;33.35;;;;;;;4.98;100.00;99483.31;2114696;28;20185;-76
2022/05/01 01:36:38;;;;;;;48.17;32.60;;;;;;;4.96;100.00;99483.56;2106614;28;20226;-76
2022/05/01 01:37:43;;;;;;;45.55;33.95;;;;;;;4.97;100.00;99487.81;2115185;28;20185;-76
2022/05/01 01:38:44;;;;;;;44.75;32.78;;;;;;;4.95;100.00;99479.34;2115771;28;20546;-75
2022/05/01 01:39:46;;;;;;;48.65;34.33;;;;;;;4.97;100.00;99487.00;2115788;28;20234;-75
2022/05/01 01:40:50;;;;;;;45.65;34.08;;;;;;;4.98;100.00;99478.81;2115903;28;20188;-77
2022/05/01 01:41:55;;;;;;;49.03;33.83;;;;;;;4.97;100.00;99487.00;2114569;28;20193;-76
2022/05/01 01:42:59;;;;;;;42.38;34.00;;;;;;;4.96;100.00;99486.22;2115146;28;20181;-76
2022/05/01 01:44:02;;;;;;;51.15;34.75;;;;;;;4.93;100.00;99489.34;2115008;28;20193;-76
2022/05/01 01:45:04;;;;;;;46.35;34.30;;;;;;;4.88;100.00;99485.84;2115111;28;20674;-76
2022/05/01 01:46:05;;;;;;;48.45;35.10;;;;;;;4.90;100.00;99492.47;2115032;28;20204;-75
2022/05/01 01:47:06;;;;;;;46.97;34.28;;;;;;;4.91;100.00;99488.78;2115034;28;20197;-76
2022/05/01 01:48:14;;;;;;;45.53;34.50;;;;;;;4.90;100.00;99489.03;2115120;28;20718;-76
2022/05/01 01:49:15;;;;;;;44.38;33.42;;;;;;;4.89;100.00;99487.44;2123030;27;20200;-76
2022/05/01 01:50:19;;;;;;;45.55;33.00;;;;;;;4.87;100.00;99486.91;2123700;27;20245;-76
2022/05/01 01:51:20;;;;;;;44.63;33.33;;;;;;;4.83;100.00;99486.59;2115296;28;20698;-76
2022/05/01 01:52:23;;;;;;;48.77;33.33;;;;;;;4.82;100.00;99482.34;2114938;28;20648;-75
2022/05/01 01:53:25;;;;;;;45.65;32.63;;;;;;;4.81;100.00;99483.41;2114456;28;20450;-76
2022/05/01 01:54:27;;;;;;;52.65;35.40;;;;;;;4.80;100.00;99482.59;2115083;28;20177;-75
2022/05/01 01:55:32;;;;;;;48.60;33.60;;;;;;;4.75;100.00;99481.72;2114863;28;20204;-76
2022/05/01 01:56:35;;;;;;;50.45;34.78;;;;;;;4.73;100.00;99481.19;2115055;28;20173;-75
2022/05/01 01:57:36;;;;;;;49.47;34.97;;;;;;;4.71;100.00;99484.09;2115864;28;20225;-75
2022/05/01 01:58:41;;;;;;;46.30;34.88;;;;;;;4.67;100.00;99482.16;2115292;28;20189;-75
2022/05/01 01:59:42;;;;;;;49.97;35.17;;;;;;;4.65;100.00;99478.97;2114656;28;20208;-75
2022/05/01 02:00:44;;;;;;;52.47;36.10;;;;;;;4.63;100.00;99481.06;2113955;28;20284;-76
2022/05/01 02:01:45;;;;;;;46.50;35.67;;;;;;;4.60;100.00;99477.06;2123470;27;20547;-75
2022/05/01 02:02:47;;;;;;;46.67;35.47;;;;;;;4.58;100.00;99481.78;2123348;27;20200;-75
2022/05/01 02:03:51;;;;;;;46.78;34.42;;;;;;;4.60;100.00;99484.19;2114847;28;20215;-76
2022/05/01 02:04:54;;;;;;;51.78;35.17;;;;;;;4.57;100.00;99474.13;2114404;28;20205;-76
2022/05/01 02:05:56;;;;;;;49.17;35.70;;;;;;;4.55;100.00;99479.66;2114494;28;20196;-75
2022/05/01 02:06:57;;;;;;;47.95;35.88;;;;;;;4.56;100.00;99483.09;2115802;28;20176;-76
2022/05/01 02:08:01;;;;;;;43.57;33.20;;;;;;;4.53;100.00;99481.75;2115569;28;20199;-76
2022/05/01 02:09:06;;;;;;;48.15;33.95;;;;;;;4.52;100.00;99475.66;2114767;28;20691;-75
2022/05/01 02:10:10;;;;;;;49.65;35.28;;;;;;;4.49;100.00;99476.13;2114972;28;20616;-75
2022/05/01 02:11:12;;;;;;;46.38;35.55;;;;;;;4.49;100.00;99470.84;2114808;28;20287;-76
2022/05/01 02:12:13;;;;;;;48.38;35.40;;;;;;;4.49;100.00;99478.78;2115104;28;20724;-75
2022/05/01 02:13:15;;;;;;;47.47;35.47;;;;;;;4.47;100.00;99480.88;2115611;28;20258;-76
2022/05/01 02:14:15;;;;;;;54.95;36.20;;;;;;;4.47;100.00;99475.59;2114691;28;20785;-75
2022/05/01 02:15:18;;;;;;;45.23;35.40;;;;;;;4.43;100.00;99482.44;2106474;28;20630;-75
2022/05/01 02:16:19;;;;;;;48.03;36.70;;;;;;;4.43;100.00;99478.97;2115111;28;20241;-75
2022/05/01 02:17:21;;;;;;;54.10;36.03;;;;;;;4.44;100.00;99473.47;2115555;28;20643;-75
2022/05/01 02:18:23;;;;;;;51.25;36.58;;;;;;;4.43;100.00;99474.50;2114778;28;20197;-75
2022/05/01 02:19:24;;;;;;;53.70;36.30;;;;;;;4.44;100.00;99476.09;2114962;28;20735;-75
2022/05/01 02:20:26;;;;;;;55.17;36.25;;;;;;;4.43;100.00;99485.06;2114783;28;20741;-75
2022/05/01 02:21:35;;;;;;;52.47;37.10;;;;;;;4.45;100.00;99480.34;2114293;28;20247;-75
2022/05/01 02:22:38;;;;;;;60.17;37.80;;;;;;;4.46;100.00;99481.13;2115639;28;20623;-75
2022/05/01 02:23:41;;;;;;;56.10;37.20;;;;;;;4.45;100.00;99479.53;2115021;28;20193;-76
2022/05/01 02:24:43;;;;;;;61.58;39.38;;;;;;;4.45;100.00;99485.63;2115062;28;20189;-76
2022/05/01 02:25:44;;;;;;;53.75;37.20;;;;;;;4.45;100.00;99475.06;2114889;28;20557;-75
2022/05/01 02:26:46;;;;;;;56.67;36.53;;;;;;;4.45;100.00;99469.78;2114755;28;20243;-75
2022/05/01 02:27:50;;;;;;;55.22;38.72;;;;;;;4.44;100.00;99483.22;2115006;28;20224;-76
2022/05/01 02:28:53;;;;;;;56.28;37.25;;;;;;;4.46;100.00;99474.00;2115480;28;20212;-76
2022/05/01 02:29:53;;;;;;;49.15;36.05;;;;;;;4.45;100.00;99474.25;2115065;28;20248;-75
2022/05/01 02:30:56;;;;;;;53.37;35.93;;;;;;;4.43;100.00;99479.78;2114879;28;20223;-76
2022/05/01 02:31:57;;;;;;;53.10;36.22;;;;;;;4.40;100.00;99477.63;2115418;28;20188;-76
2022/05/01 02:32:59;;;;;;;52.55;37.22;;;;;;;4.41;100.00;99473.13;2115848;28;20189;-75
2022/05/01 02:34:00;;;;;;;51.90;36.22;;;;;;;4.38;100.00;99471.78;2115355;28;20200;-76
2022/05/01 02:35:03;;;;;;;58.67;39.30;;;;;;;4.37;100.00;99477.31;2115449;28;20215;-76
2022/05/01 02:36:06;;;;;;;55.38;38.72;;;;;;;4.37;100.00;99477.31;2114139;28;20747;-76
2022/05/01 02:37:08;;;;;;;49.25;37.20;;;;;;;4.37;100.00;99475.47;2106721;28;20181;-76
2022/05/01 02:38:11;;;;;;;56.05;37.40;;;;;;;4.36;100.00;99475.72;2105758;28;20209;-76
2022/05/01 02:39:16;;;;;;;52.97;37.22;;;;;;;4.36;100.00;99483.66;2115038;28;20197;-76
2022/05/01 02:40:16;;;;;;;52.42;37.05;;;;;;;4.34;100.00;99478.59;2114704;28;20192;-76
2022/05/01 02:41:20;;;;;;;51.53;37.80;;;;;;;4.37;100.00;99470.19;2114887;28;20707;-76
2022/05/01 02:42:22;;;;;;;54.90;37.78;;;;;;;4.37;100.00;99472.03;2114149;28;20200;-76
2022/05/01 02:43:24;;;;;;;52.90;37.47;;;;;;;4.36;100.00;99476.53;2114751;28;20199;-76
2022/05/01 02:44:27;;;;;;;52.47;35.63;;;;;;;4.35;100.00;99468.84;2123117;28;20192;-76
2022/05/01 02:45:29;;;;;;;57.97;39.03;;;;;;;4.34;100.00;99472.50;2122978;28;20221;-76
2022/05/01 02:46:32;;;;;;;49.85;36.42;;;;;;;4.31;100.00;99468.53;2114496;28;20203;-76
2022/05/01 02:47:33;;;;;;;47.83;36.97;;;;;;;4.31;100.00;99468.53;2114917;28;20673;-76
2022/05/01 02:48:35;;;;;;;51.63;36.67;;;;;;;4.26;100.00;99471.09;2114639;28;20191;-76
2022/05/01 02:49:40;;;;;;;54.92;38.55;;;;;;;4.25;100.00;99469.50;2114880;28;20185;-76
2022/05/01 02:50:41;;;;;;;54.75;36.63;;;;;;;4.22;100.00;99475.28;2115556;28;20190;-75
2022/05/01 02:51:43;;;;;;;57.13;37.93;;;;;;;4.23;100.00;99474.22;2122779;28;20280;-76
2022/05/01 02:52:45;;;;;;;54.60;37.65;;;;;;;4.24;100.00;99478.47;2114643;28;20196;-76
2022/05/01 02:53:47;;;;;;;52.88;37.08;;;;;;;4.30;100.00;99482.78;2114916;28;20189;-76
2022/05/01 02:54:49;;;;;;;54.92;37.85;;;;;;;4.28;100.00;99469.03;2115546;28;20580;-76
2022/05/01 02:55:55;;;;;;;50.33;37.25;;;;;;;4.28;100.00;99473.50;2115503;28;20509;-76
2022/05/01 02:56:56;;;;;;;54.42;36.47;;;;;;;4.24;100.00;99473.19;2115466;28;20173;-76
2022/05/01 02:57:57;;;;;;;49.67;36.63;;;;;;;4.24;100.00;99471.34;2115311;28;20189;-76
2022/05/01 02:59:00;;;;;;;49.40;37.03;;;;;;;4.21;100.00;99468.38;2115378;28;20188;-76
2022/05/01 03:00:04;;;;;;;52.53;36.65;;;;;;;4.21;100.00;99471.03;2115288;28;20272;-76
2022/05/01 03:01:05;;;;;;;57.03;37.63;;;;;;;4.15;100.00;99470.16;2115309;28;20215;-76
2022/05/01 03:02:08;;;;;;;58.80;38.27;;;;;;;4.15;100.00;99470.16;2115359;28;20264;-76
2022/05/01 03:03:10;;;;;;;55.53;37.15;;;;;;;4.13;100.00;99466.16;2114251;28;20200;-75
2022/05/01 03:04:11;;;;;;;54.43;36.77;;;;;;;4.13;100.00;99466.97;2106236;28;20309;-76
2022/05/01 03:05:12;;;;;;;50.38;36.72;;;;;;;4.11;100.00;99473.53;2114722;28;20200;-76
2022/05/01 03:06:14;;;;;;;52.23;36.83;;;;;;;4.08;100.00;99466.09;2114213;28;20216;-76
2022/05/01 03:07:17;;;;;;;48.65;35.35;;;;;;;4.09;100.00;99471.16;2105950;28;20455;-76
2022/05/01 03:08:20;;;;;;;52.72;35.63;;;;;;;4.08;100.00;99466.88;2106447;28;20194;-76
2022/05/01 03:09:20;;;;;;;59.55;36.30;;;;;;;4.01;100.00;99468.13;2114791;28;20190;-76
2022/05/01 03:10:27;;;;;;;55.53;37.50;;;;;;;3.99;100.00;99470.97;2115765;28;20269;-76
2022/05/01 03:11:28;;;;;;;52.88;35.95;;;;;;;3.93;100.00;99464.84;2116199;28;20189;-76
2022/05/01 03:12:30;;;;;;;49.97;36.47;;;;;;;3.92;100.00;99465.91;2116245;28;20202;-76
2022/05/01 03:13:30;;;;;;;49.38;37.47;;;;;;;3.92;100.00;99473.00;2116211;28;20189;-76
2022/05/01 03:14:34;;;;;;;54.83;37.13;;;;;;;3.91;100.00;99469.56;2116268;28;20281;-76
2022/05/01 03:15:36;;;;;;;54.28;38.05;;;;;;;3.90;100.00;99473.22;2116923;28;20658;-76
2022/05/01 03:16:39;;;;;;;55.90;38.60;;;;;;;3.90;100.00;99473.22;2116912;28;20585;-76
2022/05/01 03:23:04;;;;;;;52.03;35.53;;;;;;;3.88;100.00;99464.75;2116923;28;20173;-76
2022/05/01 03:24:06;;;;;;;50.60;35.42;;;;;;;3.91;100.00;99464.28;2116164;28;20193;-76
2022/05/01 03:25:08;;;;;;;50.80;35.25;;;;;;;3.91;100.00;99469.56;2107850;28;20193;-76
2022/05/01 03:26:10;;;;;;;46.67;34.40;;;;;;;3.90;100.00;99467.94;2116232;28;20192;-76
2022/05/01 03:27:13;;;;;;;50.22;35.28;;;;;;;3.87;100.00;99468.44;2115831;28;20196;-75
2022/05/01 03:28:17;;;;;;;49.78;35.38;;;;;;;3.88;100.00;99470.03;2116369;28;20626;-76
2022/05/01 03:29:19;;;;;;;48.35;35.55;;;;;;;3.89;100.00;99471.63;2116137;28;20196;-76
2022/05/01 03:30:20;;;;;;;51.58;34.83;;;;;;;3.86;100.00;99466.06;2116162;28;20211;-76
2022/05/01 03:31:22;;;;;;;48.87;35.30;;;;;;;3.89;100.00;99471.63;2124658;27;20215;-76
2022/05/01 03:32:24;;;;;;;60.53;37.65;;;;;;;3.88;100.00;99471.88;2116901;28;20192;-76
2022/05/01 03:33:27;;;;;;;49.95;36.92;;;;;;;3.88;100.00;99472.69;2115621;28;20232;-76
2022/05/01 03:34:30;;;;;;;48.95;35.40;;;;;;;3.85;100.00;99467.91;2116177;28;20546;-76
2022/05/01 03:35:35;;;;;;;49.55;36.00;;;;;;;3.87;100.00;99472.94;2116359;28;20193;-76
2022/05/01 03:36:37;;;;;;;47.13;35.83;;;;;;;3.88;100.00;99470.03;2115804;28;20308;-75
2022/05/01 03:37:38;;;;;;;49.90;36.20;;;;;;;3.90;100.00;99475.06;2116753;28;20647;-76
2022/05/01 03:38:43;;;;;;;50.77;36.37;;;;;;;3.89;100.00;99476.91;2116373;28;20561;-76
2022/05/01 03:39:44;;;;;;;51.92;36.58;;;;;;;3.88;100.00;99471.88;2107502;28;20616;-76
2022/05/01 03:40:47;;;;;;;51.55;35.67;;;;;;;3.88;100.00;99472.69;2116471;28;20246;-76
2022/05/01 03:41:52;;;;;;;53.08;37.97;;;;;;;3.88;100.00;99469.25;2116686;28;20185;-76
2022/05/01 03:42:54;;;;;;;49.42;37.20;;;;;;;3.86;100.00;99472.13;2115970;28;20188;-76
2022/05/01 03:43:55;;;;;;;54.92;37.22;;;;;;;3.89;100.00;99470.84;2107906;28;20205;-75
2022/05/01 03:44:57;;;;;;;50.80;36.63;;;;;;;3.87;100.00;99478.22;2116174;28;20193;-76
2022/05/01 03:45:59;;;;;;;49.25;35.80;;;;;;;3.88;100.00;99475.31;2117019;28;20246;-76
2022/05/01 03:47:01;;;;;;;53.53;36.42;;;;;;;3.88;100.00;99477.97;2116702;28;20196;-76
2022/05/01 03:48:02;;;;;;;57.90;37.42;;;;;;;3.88;100.00;99474.53;2115985;28;20197;-76
2022/05/01 03:49:06;;;;;;;61.85;36.08;;;;;;;3.90;100.00;99477.72;2107742;28;20198;-75
2022/05/01 03:50:07;;;;;;;55.42;35.38;;;;;;;3.89;100.00;99470.84;2116111;28;20219;-76
2022/05/01 03:51:09;;;;;;;55.00;37.95;;;;;;;3.94;100.00;99468.28;2115342;28;20197;-76
2022/05/01 03:52:10;;;;;;;53.65;36.72;;;;;;;3.93;100.00;99472.78;2116142;28;20251;-76
2022/05/01 03:53:13;;;;;;;48.17;35.83;;;;;;;4.02;100.00;99469.72;2116684;28;20271;-76
2022/05/01 03:54:15;;;;;;;54.28;36.42;;;;;;;4.03;100.00;99466.03;2115812;28;20213;-76
2022/05/01 03:55:17;;;;;;;48.47;36.17;;;;;;;4.05;100.00;99470.03;2115989;28;20185;-76
2022/05/01 03:56:18;;;;;;;52.83;37.40;;;;;;;4.00;100.00;99472.59;2116564;28;20188;-76
2022/05/01 03:57:21;;;;;;;52.47;36.57;;;;;;;4.03;100.00;99468.66;2124052;27;20204;-76
2022/05/01 03:58:22;;;;;;;50.05;35.60;;;;;;;4.05;100.00;99469.22;2124326;27;20429;-76
2022/05/01 03:59:24;;;;;;;52.20;38.00;;;;;;;4.10;100.00;99479.88;2115956;28;20275;-76
2022/05/01 04:00:25;;;;;;;50.97;36.42;;;;;;;4.11;100.00;99473.53;2116169;28;20188;-76
2022/05/01 04:01:27;;;;;;;53.70;37.13;;;;;;;4.13;100.00;99482.00;2115826;28;20200;-76
2022/05/01 04:02:31;;;;;;;56.28;38.10;;;;;;;4.13;100.00;99474.88;2115817;28;20447;-76
2022/05/01 04:03:33;;;;;;;54.67;36.47;;;;;;;4.16;100.00;99481.50;2115805;28;20548;-76
2022/05/01 04:04:35;;;;;;;52.22;37.13;;;;;;;4.19;100.00;99478.41;2115655;28;20196;-76
2022/05/01 04:05:37;;;;;;;52.53;36.47;;;;;;;4.23;100.00;99480.31;2115725;28;20193;-76
2022/05/01 04:06:38;;;;;;;55.30;36.00;;;;;;;4.27;100.00;99487.75;2115629;28;20225;-76
2022/05/01 04:07:39;;;;;;;52.00;36.50;;;;;;;4.30;100.00;99474.06;2115770;28;20199;-76
2022/05/01 04:08:42;;;;;;;50.50;36.00;;;;;;;4.37;100.00;99477.31;2116131;28;20200;-76
2022/05/01 04:09:44;;;;;;;52.28;35.63;;;;;;;4.38;100.00;99485.00;2115712;28;20193;-76
2022/05/01 04:10:54;;;;;;;50.58;36.63;;;;;;;4.39;100.00;99476.03;2115958;28;20666;-76
2022/05/01 04:11:55;;;;;;;52.08;35.78;;;;;;;4.42;100.00;99480.81;2116568;28;20188;-76
2022/05/01 04:12:58;;;;;;;51.80;35.93;;;;;;;4.44;100.00;99481.38;2116413;28;20640;-76
2022/05/01 04:14:00;;;;;;;51.85;36.42;;;;;;;4.46;100.00;99483.78;2115753;28;20197;-76
2022/05/01 04:15:03;;;;;;;53.85;35.75;;;;;;;4.61;100.00;99488.44;2115927;28;20188;-76
2022/05/01 04:16:05;;;;;;;51.08;36.85;;;;;;;4.70;100.00;99481.69;2116411;28;20694;-76
2022/05/01 04:17:09;;;;;;;52.60;36.10;;;;;;;4.75;100.00;99484.38;2116387;28;20249;-76
2022/05/01 04:18:10;;;;;;;50.35;35.40;;;;;;;4.74;100.00;99474.84;2115702;28;20205;-76
2022/05/01 04:19:12;;;;;;;46.40;35.07;;;;;;;4.82;100.00;99479.69;2107284;28;20243;-76
2022/05/01 04:20:15;;;;;;;48.53;34.35;;;;;;;4.85;100.00;99476.56;2115765;28;20216;-76
2022/05/01 04:21:18;;;;;;;51.05;35.10;;;;;;;4.87;100.00;99484.25;2114842;28;20228;-76
2022/05/01 04:22:18;;;;;;;50.28;35.33;;;;;;;4.88;100.00;99484.00;2116056;28;20576;-76
2022/05/01 04:23:22;;;;;;;56.73;36.17;;;;;;;4.93;100.00;99478.75;2115690;28;20203;-76
2022/05/01 04:24:24;;;;;;;56.70;36.42;;;;;;;4.96;100.00;99477.47;2116081;27;20193;-75
2022/05/01 04:25:29;;;;;;;52.65;36.10;;;;;;;4.89;100.00;99482.97;2124161;27;20188;-76
2022/05/01 04:26:30;;;;;;;49.00;35.92;;;;;;;4.96;100.00;99483.56;2116327;28;20196;-76
2022/05/01 04:27:31;;;;;;;50.17;36.27;;;;;;;4.90;100.00;99481.91;2115492;28;20236;-76
2022/05/01 04:28:35;;;;;;;48.20;35.47;;;;;;;4.91;100.00;99480.06;2116032;28;20173;-76
2022/05/01 04:29:39;;;;;;;53.10;36.20;;;;;;;4.95;100.00;99489.91;2115624;28;20220;-76
2022/05/01 04:30:41;;;;;;;47.15;34.97;;;;;;;4.99;100.00;99488.34;2115722;28;20193;-76
2022/05/01 04:31:42;;;;;;;55.25;37.13;;;;;;;5.02;100.00;99490.50;2116554;28;20189;-77
2022/05/01 04:32:48;;;;;;;52.00;36.87;;;;;;;5.04;100.00;99493.69;2115333;28;20278;-77
2022/05/01 04:33:49;;;;;;;54.00;35.92;;;;;;;5.10;100.00;99482.09;2115946;28;20678;-77
2022/05/01 04:34:51;;;;;;;50.97;36.47;;;;;;;5.18;100.00;99486.16;2116180;28;20553;-77
2022/05/01 04:35:52;;;;;;;51.42;36.13;;;;;;;5.23;100.00;99478.28;2116446;28;20201;-72
2022/05/01 04:36:54;;;;;;;48.40;36.37;;;;;;;5.29;100.00;99477.25;2116498;28;20271;-77
2022/05/01 04:37:56;;;;;;;52.17;35.88;;;;;;;5.36;100.00;99485.00;2115138;28;20197;-77
2022/05/01 04:38:57;;;;;;;51.95;36.17;;;;;;;5.41;100.00;99482.41;2116132;28;20272;-75
2022/05/01 04:40:00;;;;;;;49.90;36.33;;;;;;;5.46;100.00;99477.16;2115656;28;20208;-76
2022/05/01 04:41:03;;;;;;;49.40;36.83;;;;;;;5.52;100.00;99485.94;2115947;28;20216;-77
2022/05/01 04:42:04;;;;;;;51.88;35.17;;;;;;;5.52;100.00;99486.72;2115536;28;20189;-75
2022/05/01 04:43:08;;;;;;;51.05;36.33;;;;;;;5.52;100.00;99484.09;2115661;28;20612;-74
2022/05/01 04:44:10;;;;;;;50.80;36.30;;;;;;;5.57;100.00;99488.63;2115671;28;20686;-75
2022/05/01 04:45:15;;;;;;;44.78;35.00;;;;;;;5.65;100.00;99488.97;2115900;28;20176;-75
2022/05/01 04:46:15;;;;;;;53.58;36.03;;;;;;;5.63;100.00;99485.75;2116684;28;20189;-75
2022/05/01 04:47:17;;;;;;;54.47;36.67;;;;;;;5.66;100.00;99489.78;2115534;28;20656;-75
2022/05/01 04:48:19;;;;;;;52.35;35.17;;;;;;;5.72;100.00;99487.94;2107130;28;20194;-76
2022/05/01 04:49:23;;;;;;;49.75;36.25;;;;;;;5.75;100.00;99488.25;2115865;28;20193;-76
2022/05/01 04:50:25;;;;;;;49.15;35.80;;;;;;;5.79;100.00;99484.03;2115312;27;20231;-76
2022/05/01 04:51:28;;;;;;;51.60;35.35;;;;;;;5.82;100.00;99483.53;2114367;28;20241;-75
2022/05/01 04:52:29;;;;;;;48.40;35.85;;;;;;;5.86;100.00;99481.97;2115510;28;20280;-75
2022/05/01 04:53:31;;;;;;;52.23;35.23;;;;;;;5.92;100.00;99477.53;2116086;28;20195;-76
2022/05/01 04:54:32;;;;;;;56.20;35.15;;;;;;;5.93;100.00;99474.63;2123179;27;20195;-76
2022/05/01 04:55:34;;;;;;;51.33;35.47;;;;;;;5.99;100.00;99472.81;2124021;27;20275;-75
2022/05/01 04:57:56;;;;;;;49.83;35.67;;;;;;;6.12;100.00;99474.22;2109645;28;20252;-76
2022/05/01 04:58:57;;;;;;;51.80;36.42;;;;;;;6.19;100.00;99474.78;2115526;28;20715;-76
2022/05/01 05:00:01;;;;;;;48.30;35.70;;;;;;;6.26;100.00;99477.22;2115455;28;20605;-75